Time;durP1;ratioP1;P1;durP2;ratioP2;P2;SDS_P1;SDS_P2;PMS_P1;PMS_P2;Temp;Humidity;BMP_temperature;BMP_pressure;BME280_temperature;BME280_humidity;BME280_pressure;Samples;Min_cycle;Max_cycle;Signal;HPM_P1;HPM_P2
2022/10/10 00:01:15;;;;;;;10.52;3.47;;;;;;;;;;4963280;28;20058;-67
2022/10/10 00:03:41;;;;;;;6.50;3.42;;;;;;;;;;4964005;28;20056;-68
2022/10/10 00:06:07;;;;;;;6.72;2.85;;;;;;;;;;4964235;28;20046;-68
2022/10/10 00:08:32;;;;;;;5.13;3.10;;;;;;;;;;4963603;28;20058;-69
2022/10/10 00:10:58;;;;;;;9.55;3.53;;;;;;;;;;4962072;28;20058;-68
2022/10/10 00:13:23;;;;;;;3.25;2.90;;;;;;;;;;4962798;28;20058;-69
2022/10/10 00:15:49;;;;;;;7.05;3.25;;;;;;;;;;4963947;28;20452;-66
2022/10/10 00:18:14;;;;;;;7.93;3.20;;;;;;;;;;4963465;28;20046;-67
2022/10/10 00:20:40;;;;;;;4.78;3.50;;;;;;;;;;4963817;28;20189;-69
2022/10/10 00:23:05;;;;;;;5.93;3.38;;;;;;;;;;4961865;28;20042;-69
2022/10/10 00:25:31;;;;;;;9.48;3.45;;;;;;;;;;4963721;28;20707;-67
2022/10/10 00:28:01;;;;;;;7.63;3.78;;;;;;;;;;4963457;28;20045;-72
2022/10/10 00:30:26;;;;;;;7.32;3.50;;;;;;;;;;4945941;28;20050;-70
2022/10/10 00:32:52;;;;;;;3.97;3.10;;;;;;;;;;4962939;28;20051;-70
2022/10/10 00:35:17;;;;;;;9.20;3.40;;;;;;;;;;4962210;28;20058;-69
2022/10/10 00:37:43;;;;;;;5.43;3.50;;;;;;;;;;4963493;28;20054;-68
2022/10/10 00:40:10;;;;;;;14.93;3.50;;;;;;;;;;4961739;28;20055;-68
2022/10/10 00:42:35;;;;;;;3.75;3.15;;;;;;;;;;4963445;28;20075;-67
2022/10/10 00:45:37;;;;;;;5.90;3.05;;;;;;;;;;4962003;28;20126;-69
2022/10/10 00:48:11;;;;;;;4.82;3.83;;;;;;;;;;4963270;28;20046;-67
2022/10/10 00:50:41;;;;;;;5.38;3.08;;;;;;;;;;4963153;28;20042;-71
2022/10/10 00:53:09;;;;;;;5.07;3.33;;;;;;;;;;4962667;28;20054;-70
2022/10/10 00:55:35;;;;;;;4.45;2.95;;;;;;;;;;4962322;28;20061;-69
2022/10/10 00:58:03;;;;;;;7.03;3.72;;;;;;;;;;4962795;28;20039;-70
2022/10/10 01:00:28;;;;;;;6.05;3.30;;;;;;;;;;4962514;28;20046;-70
2022/10/10 01:02:54;;;;;;;4.65;3.05;;;;;;;;;;4961752;28;20050;-70
2022/10/10 01:05:19;;;;;;;7.65;3.33;;;;;;;;;;4959980;28;20058;-70
2022/10/10 01:07:45;;;;;;;5.10;3.08;;;;;;;;;;4961143;28;20106;-70
2022/10/10 01:10:14;;;;;;;7.90;3.08;;;;;;;;;;4959990;28;20109;-69
2022/10/10 01:12:54;;;;;;;13.02;3.47;;;;;;;;;;4960687;28;20047;-72
2022/10/10 01:15:31;;;;;;;4.90;3.60;;;;;;;;;;4943733;28;20102;-70
2022/10/10 01:18:19;;;;;;;10.88;2.95;;;;;;;;;;4962745;28;20058;-69
2022/10/10 01:20:57;;;;;;;3.80;3.45;;;;;;;;;;4961924;28;20105;-68
2022/10/10 01:23:48;;;;;;;7.80;3.38;;;;;;;;;;4961703;28;20050;-71
2022/10/10 01:26:37;;;;;;;7.25;3.80;;;;;;;;;;4961793;28;20057;-73
2022/10/10 01:29:21;;;;;;;7.18;4.20;;;;;;;;;;4962038;28;20055;-68
2022/10/10 01:31:50;;;;;;;14.48;4.43;;;;;;;;;;4962871;28;20058;-69
2022/10/10 01:34:42;;;;;;;6.78;4.60;;;;;;;;;;4962571;28;20047;-71
2022/10/10 01:37:18;;;;;;;9.00;4.13;;;;;;;;;;4957590;28;20055;-72
2022/10/10 01:39:51;;;;;;;6.28;3.40;;;;;;;;;;4961323;28;20050;-71
2022/10/10 01:42:22;;;;;;;6.50;3.90;;;;;;;;;;4961997;28;20090;-71
2022/10/10 01:44:51;;;;;;;7.73;4.27;;;;;;;;;;4961477;28;20050;-70
2022/10/10 01:47:16;;;;;;;14.23;4.10;;;;;;;;;;4961152;28;20431;-69
2022/10/10 01:49:44;;;;;;;9.13;4.18;;;;;;;;;;4961730;28;20061;-70
2022/10/10 01:52:31;;;;;;;9.95;3.67;;;;;;;;;;4961750;28;20077;-69
2022/10/10 01:55:02;;;;;;;5.13;3.47;;;;;;;;;;4961362;28;21089;-68
2022/10/10 01:57:38;;;;;;;7.90;3.70;;;;;;;;;;4961272;28;20889;-69
2022/10/10 02:00:13;;;;;;;4.35;3.17;;;;;;;;;;4961372;28;20047;-69
2022/10/10 02:02:56;;;;;;;3.63;3.17;;;;;;;;;;4961756;28;20054;-69
2022/10/10 02:05:31;;;;;;;5.30;3.70;;;;;;;;;;4959412;28;20082;-69
2022/10/10 02:08:05;;;;;;;6.50;3.50;;;;;;;;;;4961825;28;20043;-66
2022/10/10 02:10:34;;;;;;;7.40;3.53;;;;;;;;;;4960902;28;20053;-70
2022/10/10 02:13:03;;;;;;;6.25;3.80;;;;;;;;;;4961446;28;20051;-67
2022/10/10 02:15:36;;;;;;;11.32;4.70;;;;;;;;;;4943959;28;20050;-67
2022/10/10 02:18:05;;;;;;;12.32;5.25;;;;;;;;;;4961843;28;20042;-69
2022/10/10 02:20:32;;;;;;;7.70;4.88;;;;;;;;;;4960617;28;20518;-68
2022/10/10 02:22:57;;;;;;;11.15;5.32;;;;;;;;;;4960806;28;20049;-67
2022/10/10 02:25:28;;;;;;;8.80;5.40;;;;;;;;;;4961670;28;20047;-67
2022/10/10 02:28:04;;;;;;;9.50;6.57;;;;;;;;;;4961534;28;20052;-68
2022/10/10 02:30:33;;;;;;;11.55;4.95;;;;;;;;;;4960485;28;20129;-68
2022/10/10 02:33:00;;;;;;;10.93;5.15;;;;;;;;;;4960871;28;20046;-68
2022/10/10 02:35:39;;;;;;;11.07;5.18;;;;;;;;;;4961480;28;20102;-69
2022/10/10 02:38:06;;;;;;;9.95;4.75;;;;;;;;;;4961331;28;20054;-70
2022/10/10 02:40:33;;;;;;;8.00;4.53;;;;;;;;;;4961553;28;20679;-70
2022/10/10 02:43:01;;;;;;;6.80;4.20;;;;;;;;;;4960117;28;20055;-68
2022/10/10 02:45:29;;;;;;;12.60;5.05;;;;;;;;;;4961394;28;20579;-70
2022/10/10 02:47:55;;;;;;;8.38;4.63;;;;;;;;;;4961487;28;20058;-69
2022/10/10 02:50:21;;;;;;;11.43;4.97;;;;;;;;;;4961411;28;20042;-68
2022/10/10 02:52:47;;;;;;;6.65;4.82;;;;;;;;;;4960041;28;20141;-68
2022/10/10 02:55:12;;;;;;;10.70;5.03;;;;;;;;;;4961271;28;20194;-69
2022/10/10 02:57:37;;;;;;;6.65;4.70;;;;;;;;;;4961257;28;20047;-67
2022/10/10 03:00:05;;;;;;;8.93;5.05;;;;;;;;;;4961095;28;20133;-69
2022/10/10 03:02:30;;;;;;;6.68;4.88;;;;;;;;;;4961556;28;20050;-67
2022/10/10 03:04:57;;;;;;;6.70;4.22;;;;;;;;;;4963830;28;20091;-70
2022/10/10 03:07:23;;;;;;;7.90;4.65;;;;;;;;;;4964942;28;20059;-68
2022/10/10 03:09:49;;;;;;;8.30;4.93;;;;;;;;;;4964849;28;20066;-69
2022/10/10 03:12:14;;;;;;;7.80;5.03;;;;;;;;;;4965152;28;20097;-69
2022/10/10 03:14:40;;;;;;;8.82;5.10;;;;;;;;;;4964251;28;20051;-71
2022/10/10 03:17:05;;;;;;;10.55;5.97;;;;;;;;;;4964053;28;20484;-70
2022/10/10 03:19:31;;;;;;;8.27;5.78;;;;;;;;;;4964504;28;20058;-67
2022/10/10 03:21:56;;;;;;;9.13;5.55;;;;;;;;;;4965054;28;20055;-69
2022/10/10 03:24:22;;;;;;;7.82;5.53;;;;;;;;;;4964636;28;20078;-67
2022/10/10 03:26:47;;;;;;;9.35;5.55;;;;;;;;;;4963487;28;20051;-68
2022/10/10 03:29:12;;;;;;;7.78;5.72;;;;;;;;;;4964213;28;20046;-68
2022/10/10 03:31:38;;;;;;;6.15;5.13;;;;;;;;;;4964403;28;20054;-68
2022/10/10 03:34:03;;;;;;;7.63;4.85;;;;;;;;;;4964575;28;20066;-69
2022/10/10 03:36:30;;;;;;;7.47;5.10;;;;;;;;;;4963592;28;20390;-67
2022/10/10 03:38:55;;;;;;;8.90;4.72;;;;;;;;;;4960875;28;20400;-68
2022/10/10 03:41:21;;;;;;;5.93;4.43;;;;;;;;;;4963954;28;20053;-73
2022/10/10 03:43:46;;;;;;;5.13;4.32;;;;;;;;;;4964562;28;20047;-70
2022/10/10 03:46:12;;;;;;;4.90;4.30;;;;;;;;;;4964172;28;20054;-72
2022/10/10 03:48:37;;;;;;;5.78;4.57;;;;;;;;;;4960144;28;20145;-67
2022/10/10 03:51:02;;;;;;;4.93;4.43;;;;;;;;;;4962612;28;20097;-71
2022/10/10 03:53:28;;;;;;;9.85;5.30;;;;;;;;;;4964354;28;20464;-65
2022/10/10 03:55:54;;;;;;;6.40;4.70;;;;;;;;;;4964094;28;20043;-69
2022/10/10 03:58:20;;;;;;;8.57;5.22;;;;;;;;;;4962993;28;20047;-70
2022/10/10 04:00:53;;;;;;;9.02;4.57;;;;;;;;;;4962930;28;20109;-69
2022/10/10 04:03:19;;;;;;;6.07;4.40;;;;;;;;;;4963682;28;20205;-68
2022/10/10 04:05:44;;;;;;;7.93;4.68;;;;;;;;;;4964009;28;21086;-70
2022/10/10 04:08:09;;;;;;;9.18;4.55;;;;;;;;;;4963902;28;20065;-68
2022/10/10 04:10:35;;;;;;;11.85;4.65;;;;;;;;;;4962842;28;20078;-68
2022/10/10 04:13:00;;;;;;;17.20;5.30;;;;;;;;;;4961880;28;20042;-67
2022/10/10 04:15:26;;;;;;;13.07;4.30;;;;;;;;;;4962087;28;20043;-69
2022/10/10 04:17:51;;;;;;;20.15;4.60;;;;;;;;;;4960453;28;20043;-68
2022/10/10 04:20:17;;;;;;;25.33;4.15;;;;;;;;;;4959849;28;20054;-68
2022/10/10 04:22:43;;;;;;;7.35;4.22;;;;;;;;;;4961431;28;20114;-73
2022/10/10 04:25:09;;;;;;;10.07;4.30;;;;;;;;;;4961931;28;20050;-68
2022/10/10 04:27:35;;;;;;;14.10;4.22;;;;;;;;;;4962898;28;20057;-70
2022/10/10 04:30:01;;;;;;;5.78;4.10;;;;;;;;;;4962928;28;20042;-67
2022/10/10 04:32:27;;;;;;;12.65;3.97;;;;;;;;;;4961546;28;20593;-68
2022/10/10 04:34:52;;;;;;;8.73;4.05;;;;;;;;;;4961549;28;20050;-70
2022/10/10 04:37:18;;;;;;;15.50;4.07;;;;;;;;;;4961635;28;20389;-68
2022/10/10 04:39:43;;;;;;;5.07;3.88;;;;;;;;;;4962172;28;20066;-68
2022/10/10 04:42:09;;;;;;;4.30;3.88;;;;;;;;;;4961705;28;20090;-68
2022/10/10 04:44:34;;;;;;;21.00;5.43;;;;;;;;;;4962445;28;20047;-69
2022/10/10 04:46:59;;;;;;;23.75;4.40;;;;;;;;;;4962720;28;20047;-69
2022/10/10 04:49:25;;;;;;;65.85;5.05;;;;;;;;;;4962738;28;20140;-69
2022/10/10 04:51:50;;;;;;;47.67;5.03;;;;;;;;;;4963346;28;20963;-70
2022/10/10 04:54:16;;;;;;;10.13;4.78;;;;;;;;;;4960840;28;20054;-68
2022/10/10 04:56:41;;;;;;;6.32;4.68;;;;;;;;;;4961911;28;20133;-68
2022/10/10 04:59:07;;;;;;;6.80;4.85;;;;;;;;;;4960564;28;20404;-68
2022/10/10 05:01:33;;;;;;;6.75;4.55;;;;;;;;;;4962021;28;20167;-69
2022/10/10 05:03:59;;;;;;;4.85;4.30;;;;;;;;;;4962744;28;20528;-68
2022/10/10 05:06:24;;;;;;;4.65;4.15;;;;;;;;;;4961451;28;20164;-68
2022/10/10 05:08:50;;;;;;;4.90;4.00;;;;;;;;;;4946825;28;20046;-67
2022/10/10 05:11:15;;;;;;;4.03;3.63;;;;;;;;;;4962345;28;20046;-69
2022/10/10 05:13:41;;;;;;;4.63;4.10;;;;;;;;;;4960564;28;20093;-70
2022/10/10 05:16:06;;;;;;;4.32;3.92;;;;;;;;;;4961395;28;20503;-70
2022/10/10 05:18:31;;;;;;;4.38;3.97;;;;;;;;;;4961483;28;20557;-70
2022/10/10 05:20:57;;;;;;;4.20;3.80;;;;;;;;;;4957144;28;20096;-70
2022/10/10 05:23:22;;;;;;;4.60;3.80;;;;;;;;;;4960235;28;20051;-69
2022/10/10 05:25:49;;;;;;;4.75;3.97;;;;;;;;;;4959371;28;20061;-70
2022/10/10 05:28:15;;;;;;;4.70;3.83;;;;;;;;;;4959788;28;20900;-70
2022/10/10 05:30:40;;;;;;;5.35;4.20;;;;;;;;;;4959818;28;20476;-69
2022/10/10 05:33:06;;;;;;;6.28;4.47;;;;;;;;;;4959477;28;20109;-70
2022/10/10 05:35:31;;;;;;;5.90;5.15;;;;;;;;;;4961468;28;20043;-70
2022/10/10 05:37:57;;;;;;;7.13;5.47;;;;;;;;;;4960991;28;20054;-71
2022/10/10 05:40:23;;;;;;;5.38;4.68;;;;;;;;;;4961816;28;20157;-69
2022/10/10 05:42:48;;;;;;;5.95;4.82;;;;;;;;;;4961600;28;20064;-71
2022/10/10 05:45:14;;;;;;;5.05;4.53;;;;;;;;;;4961971;28;20058;-69
2022/10/10 05:47:39;;;;;;;5.82;5.00;;;;;;;;;;4962403;28;20074;-70
2022/10/10 05:50:06;;;;;;;6.15;5.00;;;;;;;;;;4960909;28;20050;-71
2022/10/10 05:52:31;;;;;;;6.25;5.10;;;;;;;;;;4962222;28;20444;-69
2022/10/10 05:54:57;;;;;;;6.95;4.78;;;;;;;;;;4960595;28;20054;-71
2022/10/10 05:57:22;;;;;;;6.85;4.63;;;;;;;;;;4961537;28;20499;-69
2022/10/10 05:59:47;;;;;;;5.55;4.68;;;;;;;;;;4960710;28;20066;-70
2022/10/10 06:02:13;;;;;;;6.95;4.90;;;;;;;;;;4960356;28;20055;-70
2022/10/10 06:04:38;;;;;;;5.63;5.00;;;;;;;;;;4960350;28;20793;-69
2022/10/10 06:07:04;;;;;;;8.20;5.13;;;;;;;;;;4959812;28;20109;-68
2022/10/10 06:09:30;;;;;;;8.50;4.85;;;;;;;;;;4959903;28;20054;-69
2022/10/10 06:11:55;;;;;;;6.10;5.30;;;;;;;;;;4959422;28;20053;-70
2022/10/10 06:14:21;;;;;;;5.57;5.03;;;;;;;;;;4960083;28;20525;-69
2022/10/10 06:16:46;;;;;;;7.45;6.07;;;;;;;;;;4961013;28;20905;-69
2022/10/10 06:19:12;;;;;;;9.02;6.60;;;;;;;;;;4961527;28;20141;-70
2022/10/10 06:21:37;;;;;;;22.55;12.55;;;;;;;;;;4959145;28;20043;-70
2022/10/10 06:24:03;;;;;;;12.95;9.02;;;;;;;;;;4960676;28;20055;-71
2022/10/10 06:26:28;;;;;;;13.98;9.88;;;;;;;;;;4961861;28;20066;-71
2022/10/10 06:28:54;;;;;;;12.32;8.80;;;;;;;;;;4957787;28;20172;-71
2022/10/10 06:31:19;;;;;;;11.38;8.50;;;;;;;;;;4961850;28;20058;-70
2022/10/10 06:33:46;;;;;;;10.18;6.95;;;;;;;;;;4960408;28;20151;-69
2022/10/10 06:36:15;;;;;;;7.75;6.00;;;;;;;;;;4962045;28;20134;-73
2022/10/10 06:38:42;;;;;;;5.65;5.05;;;;;;;;;;4965614;28;20538;-72
2022/10/10 06:41:08;;;;;;;5.22;4.68;;;;;;;;;;4965022;28;20758;-69
2022/10/10 06:43:34;;;;;;;4.97;4.07;;;;;;;;;;4964672;28;20055;-70
2022/10/10 06:46:00;;;;;;;7.80;3.50;;;;;;;;;;4965613;28;20027;-70
2022/10/10 06:48:28;;;;;;;4.15;2.83;;;;;;;;;;4965269;28;20047;-72
2022/10/10 06:51:03;;;;;;;3.97;2.33;;;;;;;;;;4964764;28;20054;-70
2022/10/10 06:53:29;;;;;;;2.88;2.55;;;;;;;;;;4965391;28;20055;-71
2022/10/10 06:55:56;;;;;;;4.20;2.67;;;;;;;;;;4962612;28;20105;-70
2022/10/10 06:58:23;;;;;;;2.90;2.70;;;;;;;;;;4964854;28;20054;-71
2022/10/10 07:00:52;;;;;;;5.50;3.13;;;;;;;;;;4957938;28;20100;-72
2022/10/10 07:03:19;;;;;;;4.07;2.90;;;;;;;;;;4963442;28;21191;-70
2022/10/10 07:05:48;;;;;;;3.80;2.70;;;;;;;;;;4964427;28;20058;-71
2022/10/10 07:08:14;;;;;;;3.00;2.70;;;;;;;;;;4964785;28;20121;-70
2022/10/10 07:10:39;;;;;;;3.90;2.75;;;;;;;;;;4965533;28;20050;-70
2022/10/10 07:13:05;;;;;;;3.22;2.92;;;;;;;;;;4964801;28;20058;-74
2022/10/10 07:15:30;;;;;;;3.20;2.90;;;;;;;;;;4966124;28;20050;-71
2022/10/10 07:17:57;;;;;;;12.43;2.85;;;;;;;;;;4964520;28;20145;-71
2022/10/10 07:20:23;;;;;;;4.43;2.97;;;;;;;;;;4964674;28;21471;-73
2022/10/10 07:22:48;;;;;;;3.60;2.78;;;;;;;;;;4961464;28;20105;-70
2022/10/10 07:25:13;;;;;;;5.93;2.85;;;;;;;;;;4964632;28;20058;-71
2022/10/10 07:27:39;;;;;;;2.47;2.28;;;;;;;;;;4963256;28;20082;-70
2022/10/10 07:30:05;;;;;;;6.50;2.55;;;;;;;;;;4964832;28;20625;-71
2022/10/10 07:32:30;;;;;;;4.13;2.35;;;;;;;;;;4961732;28;20714;-70
2022/10/10 07:34:57;;;;;;;3.08;2.22;;;;;;;;;;4963256;28;20130;-74
2022/10/10 07:37:23;;;;;;;4.95;2.00;;;;;;;;;;4964852;28;20803;-71
2022/10/10 07:39:51;;;;;;;5.90;2.30;;;;;;;;;;4962559;28;20645;-69
2022/10/10 07:42:17;;;;;;;6.05;2.40;;;;;;;;;;4968318;28;20053;-70
2022/10/10 07:44:43;;;;;;;8.95;2.60;;;;;;;;;;4963383;28;20054;-71
2022/10/10 07:47:08;;;;;;;4.88;1.75;;;;;;;;;;4962184;28;20063;-70
2022/10/10 07:49:33;;;;;;;8.90;2.00;;;;;;;;;;4961985;28;20066;-69
2022/10/10 07:51:59;;;;;;;7.47;2.00;;;;;;;;;;4963917;28;20054;-70
2022/10/10 07:54:25;;;;;;;2.65;1.90;;;;;;;;;;4964098;28;20157;-70
2022/10/10 07:56:50;;;;;;;3.47;1.90;;;;;;;;;;4963340;28;20054;-71
2022/10/10 07:59:16;;;;;;;6.20;2.00;;;;;;;;;;4962772;28;20062;-70
2022/10/10 08:01:41;;;;;;;10.18;2.17;;;;;;;;;;4963751;28;20047;-69
2022/10/10 08:04:06;;;;;;;7.57;2.03;;;;;;;;;;4963980;28;20043;-67
2022/10/10 08:06:32;;;;;;;4.55;2.10;;;;;;;;;;4963861;28;20049;-68
2022/10/10 08:08:57;;;;;;;3.28;2.03;;;;;;;;;;4963027;28;20058;-69
2022/10/10 08:11:23;;;;;;;7.97;2.05;;;;;;;;;;4962534;28;20042;-67
2022/10/10 08:13:49;;;;;;;4.10;2.30;;;;;;;;;;4963777;28;20503;-69
2022/10/10 08:16:15;;;;;;;5.28;2.03;;;;;;;;;;4963926;28;20043;-67
2022/10/10 08:18:41;;;;;;;9.20;3.78;;;;;;;;;;4963642;28;20047;-68
2022/10/10 08:21:09;;;;;;;4.13;2.17;;;;;;;;;;4962037;28;20117;-68
2022/10/10 08:23:35;;;;;;;2.35;2.13;;;;;;;;;;4962925;28;20042;-68
2022/10/10 08:26:03;;;;;;;8.23;2.45;;;;;;;;;;4963636;28;20050;-69
2022/10/10 08:31:13;;;;;;;6.00;2.20;;;;;;;;;;4969604;28;20061;-70
2022/10/10 08:33:42;;;;;;;7.43;2.22;;;;;;;;;;4977826;28;20136;-69
2022/10/10 08:36:12;;;;;;;12.45;2.10;;;;;;;;;;4982453;28;20514;-69
2022/10/10 08:38:38;;;;;;;7.57;2.07;;;;;;;;;;4997322;28;20117;-69
2022/10/10 08:41:19;;;;;;;7.35;2.17;;;;;;;;;;5000508;28;30657;-69
2022/10/10 08:43:51;;;;;;;12.57;2.10;;;;;;;;;;4994561;28;20030;-69
2022/10/10 08:46:28;;;;;;;7.00;1.90;;;;;;;;;;4992620;28;20774;-69
2022/10/10 08:48:58;;;;;;;3.15;2.10;;;;;;;;;;4996694;28;20053;-69
2022/10/10 08:51:28;;;;;;;5.35;2.45;;;;;;;;;;5001863;28;20058;-73
2022/10/10 08:53:57;;;;;;;4.65;1.95;;;;;;;;;;4994995;28;20061;-73
2022/10/10 08:56:30;;;;;;;3.20;1.90;;;;;;;;;;4994408;28;20450;-71
2022/10/10 08:59:11;;;;;;;4.60;1.80;;;;;;;;;;4994866;28;20049;-70
2022/10/10 09:01:37;;;;;;;2.23;1.60;;;;;;;;;;4992779;28;20084;-70
2022/10/10 09:04:06;;;;;;;7.45;2.05;;;;;;;;;;4983758;28;20367;-73
2022/10/10 09:06:55;;;;;;;7.35;2.58;;;;;;;;;;4996914;28;20073;-70
2022/10/10 09:09:27;;;;;;;8.05;2.03;;;;;;;;;;4966669;28;20064;-70
2022/10/10 09:12:07;;;;;;;;;;;;;;;;;;4999445;28;20046;-70
2022/10/10 09:14:47;;;;;;;6.50;2.38;;;;;;;;;;4993934;28;19980;-70
2022/10/10 09:17:40;;;;;;;6.53;2.33;;;;;;;;;;4989265;28;20106;-69
2022/10/10 09:20:26;;;;;;;5.68;2.00;;;;;;;;;;5000870;28;20056;-70
2022/10/10 09:22:58;;;;;;;2.88;2.10;;;;;;;;;;5000032;28;20045;-70
2022/10/10 09:25:29;;;;;;;6.22;2.13;;;;;;;;;;5001030;28;20064;-70
2022/10/10 09:28:05;;;;;;;4.93;2.03;;;;;;;;;;4995331;28;20046;-71
2022/10/10 09:30:36;;;;;;;9.80;2.42;;;;;;;;;;4989495;28;20100;-70
2022/10/10 09:33:24;;;;;;;6.10;2.40;;;;;;;;;;4999870;28;20144;-69
2022/10/10 09:35:52;;;;;;;6.53;1.90;;;;;;;;;;4995923;28;20061;-70
2022/10/10 09:38:42;;;;;;;4.45;1.70;;;;;;;;;;4999061;28;20053;-71
2022/10/10 09:41:19;;;;;;;3.50;1.70;;;;;;;;;;4999477;28;20062;-70
2022/10/10 09:43:45;;;;;;;5.32;2.00;;;;;;;;;;4998112;28;20140;-70
2022/10/10 09:46:10;;;;;;;5.82;2.00;;;;;;;;;;4992664;28;20232;-72
2022/10/10 09:48:38;;;;;;;10.10;1.90;;;;;;;;;;5000222;28;20434;-69
2022/10/10 09:51:07;;;;;;;8.32;2.25;;;;;;;;;;4991370;28;20506;-70
2022/10/10 09:53:33;;;;;;;5.35;1.77;;;;;;;;;;4993514;28;20869;-71
2022/10/10 09:55:59;;;;;;;1.98;1.30;;;;;;;;;;4993437;28;20618;-69
2022/10/10 09:58:46;;;;;;;5.10;1.73;;;;;;;;;;4985228;23;20129;-69
2022/10/10 10:01:19;;;;;;;3.42;1.67;;;;;;;;;;4959665;28;20050;-71
2022/10/10 10:04:13;;;;;;;5.95;1.83;;;;;;;;;;4961552;28;20058;-70
2022/10/10 10:06:47;;;;;;;9.45;1.55;;;;;;;;;;4961830;28;20093;-70
2022/10/10 10:09:16;;;;;;;4.72;1.40;;;;;;;;;;4961463;28;20054;-70
2022/10/10 10:11:44;;;;;;;6.75;1.48;;;;;;;;;;4961061;28;20467;-68
2022/10/10 10:14:24;;;;;;;12.30;2.03;;;;;;;;;;4961670;28;20444;-70
2022/10/10 10:16:51;;;;;;;2.90;1.27;;;;;;;;;;4960036;28;20057;-70
2022/10/10 10:19:40;;;;;;;6.13;1.77;;;;;;;;;;4961568;28;20415;-68
2022/10/10 10:22:28;;;;;;;4.35;1.25;;;;;;;;;;4961481;28;20833;-72
2022/10/10 10:24:54;;;;;;;4.25;1.45;;;;;;;;;;4960997;28;20057;-71
2022/10/10 10:27:24;;;;;;;5.95;1.40;;;;;;;;;;4961489;28;20395;-71
2022/10/10 10:29:55;;;;;;;10.10;1.60;;;;;;;;;;4959719;28;20056;-71
2022/10/10 10:32:50;;;;;;;8.57;1.73;;;;;;;;;;4960219;28;20050;-71
2022/10/10 10:35:32;;;;;;;6.28;1.70;;;;;;;;;;4945729;28;20109;-72
2022/10/10 10:38:24;;;;;;;7.05;1.65;;;;;;;;;;4961674;28;20470;-71
2022/10/10 10:41:02;;;;;;;5.47;1.30;;;;;;;;;;4960152;28;20043;-71
2022/10/10 10:43:46;;;;;;;5.40;1.38;;;;;;;;;;4960988;28;20134;-70
2022/10/10 10:46:23;;;;;;;8.93;1.60;;;;;;;;;;4960680;28;20194;-69
2022/10/10 10:49:01;;;;;;;4.00;1.15;;;;;;;;;;4961989;28;20073;-69
2022/10/10 10:51:49;;;;;;;6.88;1.27;;;;;;;;;;4943332;28;20388;-69
2022/10/10 10:54:33;;;;;;;8.80;1.70;;;;;;;;;;4961330;28;20066;-68
2022/10/10 10:57:12;;;;;;;3.60;1.17;;;;;;;;;;4960068;28;20077;-69
2022/10/10 11:00:13;;;;;;;5.72;1.58;;;;;;;;;;4960385;28;20043;-71
2022/10/10 11:03:06;;;;;;;3.30;1.40;;;;;;;;;;4960910;28;20462;-71
2022/10/10 11:05:42;;;;;;;4.20;1.25;;;;;;;;;;4959261;28;20046;-71
2022/10/10 11:08:43;;;;;;;4.03;1.75;;;;;;;;;;4960002;28;20051;-71
2022/10/10 11:11:26;;;;;;;3.15;1.17;;;;;;;;;;4949696;28;20074;-68
2022/10/10 11:14:12;;;;;;;4.72;1.35;;;;;;;;;;4961532;28;20995;-73
2022/10/10 11:16:45;;;;;;;5.78;1.10;;;;;;;;;;4961554;28;20136;-73
2022/10/10 11:19:24;;;;;;;4.35;1.30;;;;;;;;;;4959450;28;20127;-73
2022/10/10 11:21:53;;;;;;;7.65;1.77;;;;;;;;;;4960964;28;20502;-73
2022/10/10 11:24:41;;;;;;;4.68;1.38;;;;;;;;;;4962986;28;20117;-71
2022/10/10 11:27:25;;;;;;;5.35;1.75;;;;;;;;;;4964083;28;20096;-71
2022/10/10 11:30:14;;;;;;;2.67;0.90;;;;;;;;;;4962980;28;20053;-69
2022/10/10 11:32:49;;;;;;;4.28;1.30;;;;;;;;;;4963899;28;20049;-69
2022/10/10 11:35:26;;;;;;;7.57;1.30;;;;;;;;;;4962478;28;20055;-68
2022/10/10 11:38:00;;;;;;;5.03;1.70;;;;;;;;;;4963178;28;20043;-71
2022/10/10 11:40:31;;;;;;;3.63;1.20;;;;;;;;;;4960414;28;20054;-69
2022/10/10 11:43:01;;;;;;;2.03;1.50;;;;;;;;;;4959062;28;20050;-69
2022/10/10 11:45:33;;;;;;;3.63;1.30;;;;;;;;;;4961415;28;20042;-69
2022/10/10 11:48:09;;;;;;;;;;;;;;;;;;4962295;28;20093;-69
2022/10/10 11:50:39;;;;;;;5.70;1.65;;;;;;;;;;4961141;28;20741;-69
2022/10/10 11:53:18;;;;;;;2.38;1.00;;;;;;;;;;4961746;28;20042;-69
2022/10/10 11:55:56;;;;;;;7.60;1.08;;;;;;;;;;4977641;28;20050;-69
2022/10/10 11:58:24;;;;;;;1.55;1.00;;;;;;;;;;4977576;28;20151;-69
2022/10/10 12:00:57;;;;;;;3.30;1.27;;;;;;;;;;4961347;28;20396;-70
2022/10/10 12:03:25;;;;;;;3.72;1.30;;;;;;;;;;4961213;28;20407;-69
2022/10/10 12:05:58;;;;;;;3.83;1.15;;;;;;;;;;4960248;28;20047;-69
2022/10/10 12:08:32;;;;;;;6.90;1.20;;;;;;;;;;4962845;28;20047;-69
2022/10/10 12:11:06;;;;;;;3.60;1.08;;;;;;;;;;4962515;28;20081;-69
2022/10/10 12:13:38;;;;;;;2.58;1.17;;;;;;;;;;4959409;28;20525;-69
2022/10/10 12:16:08;;;;;;;;;;;;;;;;;;4960239;28;20058;-71
2022/10/10 12:18:44;;;;;;;4.20;0.98;;;;;;;;;;4963109;28;19926;-71
2022/10/10 12:21:17;;;;;;;4.32;1.10;;;;;;;;;;4962794;28;20141;-71
2022/10/10 12:23:47;;;;;;;4.40;1.10;;;;;;;;;;4961673;28;20047;-71
2022/10/10 12:26:19;;;;;;;7.28;1.30;;;;;;;;;;4962008;28;20061;-71
2022/10/10 12:29:01;;;;;;;5.28;1.20;;;;;;;;;;4961973;28;20070;-72
2022/10/10 12:31:47;;;;;;;;;;;;;;;;;;4959983;28;20059;-72
2022/10/10 12:34:15;;;;;;;2.33;0.82;;;;;;;;;;4961429;28;20325;-70
2022/10/10 12:37:03;;;;;;;3.42;1.02;;;;;;;;;;4962579;28;20058;-71
2022/10/10 12:39:33;;;;;;;3.00;0.85;;;;;;;;;;4903845;28;20161;-70
2022/10/10 12:41:59;;;;;;;5.07;0.85;;;;;;;;;;4958456;28;20046;-69
2022/10/10 12:44:34;;;;;;;8.27;1.02;;;;;;;;;;4957563;28;20093;-69
2022/10/10 12:47:15;;;;;;;4.05;1.23;;;;;;;;;;4957894;28;20632;-69
2022/10/10 12:50:03;;;;;;;2.30;0.80;;;;;;;;;;4960556;28;20534;-70
2022/10/10 12:52:53;;;;;;;7.88;1.17;;;;;;;;;;4960884;28;20046;-69
2022/10/10 12:55:23;;;;;;;4.22;0.95;;;;;;;;;;4957173;28;20475;-71
2022/10/10 12:57:52;;;;;;;4.18;0.95;;;;;;;;;;4959183;28;20039;-70
2022/10/10 13:00:18;;;;;;;3.22;0.93;;;;;;;;;;4960285;28;20637;-71
2022/10/10 13:02:48;;;;;;;2.88;1.25;;;;;;;;;;4961521;28;20106;-70
2022/10/10 13:05:20;;;;;;;2.10;0.85;;;;;;;;;;4960552;28;20491;-71
2022/10/10 13:07:48;;;;;;;7.43;1.08;;;;;;;;;;4959720;28;20046;-70
2022/10/10 13:10:26;;;;;;;2.03;1.00;;;;;;;;;;4960078;28;20081;-69
2022/10/10 13:13:14;;;;;;;5.05;1.10;;;;;;;;;;4957990;28;20058;-70
2022/10/10 13:15:56;;;;;;;4.40;1.40;;;;;;;;;;4961858;28;20419;-68
2022/10/10 13:18:39;;;;;;;5.00;0.95;;;;;;;;;;4961048;28;20051;-69
2022/10/10 13:21:07;;;;;;;2.53;1.00;;;;;;;;;;4950306;28;20070;-70
2022/10/10 13:23:41;;;;;;;3.92;1.10;;;;;;;;;;4960166;28;20109;-71
2022/10/10 13:26:20;;;;;;;3.80;1.05;;;;;;;;;;4959823;28;20137;-69
2022/10/10 13:28:45;;;;;;;4.97;1.30;;;;;;;;;;4959940;28;20043;-70
2022/10/10 13:31:12;;;;;;;3.35;1.10;;;;;;;;;;4957918;28;20061;-70
2022/10/10 13:33:39;;;;;;;5.50;1.20;;;;;;;;;;4961271;28;20506;-69
2022/10/10 13:36:16;;;;;;;3.25;1.20;;;;;;;;;;4964277;28;20050;-70
2022/10/10 13:38:42;;;;;;;3.75;1.30;;;;;;;;;;4964499;28;20070;-69
2022/10/10 13:41:07;;;;;;;3.70;1.55;;;;;;;;;;4957531;28;20063;-69
2022/10/10 13:43:33;;;;;;;4.88;1.30;;;;;;;;;;4957159;28;20113;-70
2022/10/10 13:46:02;;;;;;;3.30;1.20;;;;;;;;;;4958719;28;20142;-70
2022/10/10 13:48:34;;;;;;;2.50;1.17;;;;;;;;;;4959501;28;20054;-69
2022/10/10 13:51:05;;;;;;;2.38;1.23;;;;;;;;;;4957999;28;20078;-69
2022/10/10 13:53:35;;;;;;;3.95;1.00;;;;;;;;;;4960677;28;20467;-69
2022/10/10 13:56:15;;;;;;;4.00;1.15;;;;;;;;;;4959703;28;20062;-70
2022/10/10 13:59:06;;;;;;;2.47;1.17;;;;;;;;;;4960181;28;20050;-70
2022/10/10 14:01:34;;;;;;;10.25;1.30;;;;;;;;;;4938558;28;20061;-69
2022/10/10 14:04:11;;;;;;;1.38;1.15;;;;;;;;;;4959225;28;20047;-70
2022/10/10 14:06:38;;;;;;;3.25;1.17;;;;;;;;;;4961091;28;20606;-69
2022/10/10 14:09:19;;;;;;;11.32;1.70;;;;;;;;;;4959494;28;20050;-68
2022/10/10 14:11:45;;;;;;;5.65;1.60;;;;;;;;;;4961105;28;20383;-68
2022/10/10 14:14:22;;;;;;;9.38;1.40;;;;;;;;;;4960449;28;20562;-68
2022/10/10 14:16:59;;;;;;;5.18;1.48;;;;;;;;;;4961290;28;20049;-67
2022/10/10 14:19:24;;;;;;;5.95;1.48;;;;;;;;;;4961468;28;20637;-69
2022/10/10 14:21:50;;;;;;;2.67;1.42;;;;;;;;;;4957287;28;20133;-69
2022/10/10 14:24:16;;;;;;;8.68;1.25;;;;;;;;;;4960396;28;20097;-70
2022/10/10 14:26:41;;;;;;;2.88;1.33;;;;;;;;;;4960986;28;20043;-69
2022/10/10 14:29:12;;;;;;;6.38;1.50;;;;;;;;;;4959185;28;20159;-69
2022/10/10 14:31:38;;;;;;;5.72;1.55;;;;;;;;;;4961106;28;20407;-69
2022/10/10 14:34:03;;;;;;;3.30;1.40;;;;;;;;;;4960789;28;20058;-70
2022/10/10 14:36:28;;;;;;;8.93;1.85;;;;;;;;;;4959433;28;20499;-69
2022/10/10 14:38:54;;;;;;;3.25;1.63;;;;;;;;;;4960411;28;20499;-70
2022/10/10 14:41:19;;;;;;;5.32;1.50;;;;;;;;;;4961226;28;20057;-70
2022/10/10 14:43:45;;;;;;;6.30;1.60;;;;;;;;;;4961043;28;20097;-70
2022/10/10 14:46:16;;;;;;;9.55;1.60;;;;;;;;;;4960424;28;20406;-70
2022/10/10 14:48:42;;;;;;;4.57;1.38;;;;;;;;;;4961352;28;20062;-70
2022/10/10 14:51:10;;;;;;;10.05;1.45;;;;;;;;;;4959607;28;20055;-70
2022/10/10 14:53:36;;;;;;;4.65;1.60;;;;;;;;;;4961086;28;20042;-71
2022/10/10 14:56:02;;;;;;;5.38;2.00;;;;;;;;;;4959869;28;20043;-70
2022/10/10 14:58:27;;;;;;;3.65;1.33;;;;;;;;;;4959395;28;20062;-70
2022/10/10 15:00:53;;;;;;;2.17;1.33;;;;;;;;;;4964104;28;20035;-70
2022/10/10 15:03:19;;;;;;;4.72;1.33;;;;;;;;;;4964633;28;20558;-70
2022/10/10 15:05:44;;;;;;;7.65;2.10;;;;;;;;;;4963437;28;20052;-70